This is the latest recevied weather packets stored in our database for station/object DK6GC-10. If no packets are shown the sender has not sent any weather packets the latest 10 day(s).
| Time | Temp. | Humidity | Pressure | Rain* | Wind** | Luminosity | Snow |
|---|---|---|---|---|---|---|---|
| 1777624218 | 15.56° C | 38% | 1026.2 hPa | - | - | - | - |
| 1777623318 | 15° C | 36% | 1026.2 hPa | - | - | - | - |
| 1777622417 | 15° C | 43% | 1026.3 hPa | - | - | - | - |
| 1777621517 | 14.44° C | 39% | 1026.2 hPa | - | - | - | - |
| 1777620617 | 14.44° C | 40% | 1026.1 hPa | - | - | - | - |
| 1777619717 | 13.89° C | 46% | 1026.2 hPa | - | - | - | - |
| 1777618817 | 13.33° C | 46% | 1025.9 hPa | - | - | - | - |
| 1777617917 | 16.67° C | 35% | 1026 hPa | - | - | - | - |
| 1777617017 | 14.44° C | 37% | 1025.9 hPa | - | - | - | - |
| 1777616116 | 22.22° C | 27% | 1026.1 hPa | - | - | - | - |
| 1777611622 | 6.11° C | 58% | 1025.4 hPa | - | - | - | - |
| 1777610722 | 6.11° C | 56% | 1025.4 hPa | - | - | - | - |
| 1777609822 | 6.67° C | 55% | 1025.3 hPa | - | - | - | - |
| 1777608922 | 6.67° C | 52% | 1025.1 hPa | - | - | - | - |
| 1777608022 | 7.22° C | 50% | 1025.1 hPa | - | - | - | - |
| 1777607122 | 6.67° C | 55% | 1025.1 hPa | - | - | - | - |
| 1777606222 | 7.22° C | 51% | 1025.1 hPa | - | - | - | - |
| 1777605321 | 8.33° C | 49% | 1025.2 hPa | - | - | - | - |
| 1777604421 | 10° C | 38% | 1025.2 hPa | - | - | - | - |
| 1777603521 | 10° C | 38% | 1025.1 hPa | - | - | - | - |
| 1777602621 | 10° C | 38% | 1025.4 hPa | - | - | - | - |
| 1777601720 | 10.56° C | 35% | 1025.5 hPa | - | - | - | - |
| 1777600820 | 10° C | 38% | 1025.5 hPa | - | - | - | - |
| 1777599920 | 9.44° C | 39% | 1025.4 hPa | - | - | - | - |
| 1777599020 | 8.89° C | 41% | 1025.5 hPa | - | - | - | - |
* Rain since midnight (hover to see other rain measurements)
** Current wind speed in m/s (hover to see current wind gust speed)